Time;durP1;ratioP1;P1;durP2;ratioP2;P2;SDS_P1;SDS_P2;PMS_P1;PMS_P2;Temp;Humidity;BMP_temperature;BMP_pressure;BME280_temperature;BME280_humidity;BME280_pressure;Samples;Min_cycle;Max_cycle;Signal;HPM_P1;HPM_P2
2023/06/03 00:02:06;;;;;;;17.92;9.63;;;;;;;;;;5015823;28;20030;-59
2023/06/03 00:04:33;;;;;;;16.70;9.32;;;;;;;;;;5026776;28;20037;-59
2023/06/03 00:06:59;;;;;;;18.42;9.32;;;;;;;;;;5023983;28;20054;-59
2023/06/03 00:09:25;;;;;;;22.98;9.35;;;;;;;;;;5015093;28;20038;-59
2023/06/03 00:11:52;;;;;;;19.30;8.70;;;;;;;;;;5022666;28;20044;-59
2023/06/03 00:14:18;;;;;;;22.92;9.50;;;;;;;;;;4999859;28;20030;-58
2023/06/03 00:16:46;;;;;;;15.55;8.75;;;;;;;;;;5011902;28;20053;-59
2023/06/03 00:19:17;;;;;;;22.65;8.82;;;;;;;;;;5018452;28;20395;-59
2023/06/03 00:21:51;;;;;;;21.35;9.43;;;;;;;;;;5000194;28;20051;-59
2023/06/03 00:24:22;;;;;;;21.80;9.90;;;;;;;;;;5030284;28;20033;-59
2023/06/03 00:26:52;;;;;;;22.00;10.60;;;;;;;;;;5016957;28;20053;-59
2023/06/03 00:29:19;;;;;;;22.30;10.10;;;;;;;;;;5015583;28;20041;-59
2023/06/03 00:31:46;;;;;;;18.83;8.82;;;;;;;;;;4989742;28;20510;-59
2023/06/03 00:34:13;;;;;;;20.40;9.43;;;;;;;;;;5008589;28;20033;-60
2023/06/03 00:36:41;;;;;;;17.52;9.80;;;;;;;;;;5007882;28;20034;-59
2023/06/03 00:39:08;;;;;;;20.38;9.52;;;;;;;;;;5005295;28;20069;-59
2023/06/03 00:41:35;;;;;;;23.15;10.35;;;;;;;;;;5011407;28;20426;-59
2023/06/03 00:44:01;;;;;;;18.48;8.95;;;;;;;;;;5011185;28;20504;-59
2023/06/03 00:46:28;;;;;;;20.95;9.75;;;;;;;;;;5011162;28;20037;-59
2023/06/03 00:48:55;;;;;;;24.15;9.85;;;;;;;;;;5019909;28;20041;-59
2023/06/03 00:51:22;;;;;;;20.13;10.80;;;;;;;;;;4985382;28;20037;-59
2023/06/03 00:53:48;;;;;;;18.40;9.32;;;;;;;;;;4993926;28;20042;-59
2023/06/03 00:56:17;;;;;;;23.20;10.05;;;;;;;;;;4996822;28;20050;-59
2023/06/03 00:58:43;;;;;;;21.33;9.83;;;;;;;;;;4997072;28;20424;-59
2023/06/03 01:01:10;;;;;;;19.33;10.23;;;;;;;;;;5018925;28;20048;-59
2023/06/03 01:03:36;;;;;;;19.90;9.80;;;;;;;;;;5017434;28;20499;-59
2023/06/03 01:06:15;;;;;;;20.83;9.77;;;;;;;;;;5015176;28;20049;-58
2023/06/03 01:09:02;;;;;;;22.67;9.57;;;;;;;;;;5019449;28;20041;-59
2023/06/03 01:11:57;;;;;;;19.73;9.75;;;;;;;;;;5015449;28;20423;-59
2023/06/03 01:14:42;;;;;;;23.85;9.70;;;;;;;;;;5004203;28;20061;-59
2023/06/03 01:17:11;;;;;;;21.45;11.20;;;;;;;;;;5011424;28;20431;-59
2023/06/03 01:19:38;;;;;;;21.77;10.05;;;;;;;;;;5001351;28;20048;-59
2023/06/03 01:22:10;;;;;;;22.50;9.52;;;;;;;;;;5015931;28;20451;-59
2023/06/03 01:24:37;;;;;;;20.88;9.60;;;;;;;;;;5022180;28;20034;-59
2023/06/03 01:27:03;;;;;;;21.27;9.35;;;;;;;;;;5002873;28;20038;-59
2023/06/03 01:29:30;;;;;;;26.33;9.25;;;;;;;;;;5019344;28;20042;-57
2023/06/03 01:31:57;;;;;;;22.23;10.73;;;;;;;;;;5019023;28;20056;-59
2023/06/03 01:34:24;;;;;;;20.42;10.70;;;;;;;;;;5018868;28;20045;-59
2023/06/03 01:36:50;;;;;;;28.52;10.18;;;;;;;;;;5015227;28;20061;-58
2023/06/03 01:39:18;;;;;;;27.45;10.80;;;;;;;;;;5008665;28;20053;-59
2023/06/03 01:41:45;;;;;;;27.10;10.85;;;;;;;;;;4996237;28;20053;-59
2023/06/03 01:44:12;;;;;;;23.67;9.73;;;;;;;;;;5000553;28;20081;-58
2023/06/03 01:46:38;;;;;;;24.88;9.98;;;;;;;;;;5026229;28;20048;-58
2023/06/03 01:49:08;;;;;;;26.55;10.43;;;;;;;;;;5010849;28;20426;-58
2023/06/03 01:51:35;;;;;;;23.65;10.38;;;;;;;;;;5021066;28;20399;-58
2023/06/03 01:54:02;;;;;;;28.60;11.13;;;;;;;;;;5010022;28;20038;-59
2023/06/03 01:56:29;;;;;;;26.20;10.30;;;;;;;;;;5018100;28;20514;-59
2023/06/03 01:58:55;;;;;;;25.85;10.20;;;;;;;;;;5008257;28;20391;-57
2023/06/03 02:01:21;;;;;;;22.23;10.20;;;;;;;;;;4996691;28;20045;-57
2023/06/03 02:03:47;;;;;;;32.50;11.93;;;;;;;;;;5026725;28;20033;-59
2023/06/03 02:06:14;;;;;;;28.23;11.55;;;;;;;;;;5003010;28;20057;-59
2023/06/03 02:08:40;;;;;;;27.38;10.93;;;;;;;;;;5002025;28;20029;-59
2023/06/03 02:11:07;;;;;;;22.38;10.45;;;;;;;;;;5008655;28;20384;-59
2023/06/03 02:13:33;;;;;;;21.92;10.82;;;;;;;;;;5022094;28;20065;-60
2023/06/03 02:15:59;;;;;;;23.52;10.52;;;;;;;;;;5015198;28;20046;-59
2023/06/03 02:18:26;;;;;;;25.17;11.55;;;;;;;;;;5015424;28;20057;-59
2023/06/03 02:20:52;;;;;;;25.95;10.93;;;;;;;;;;5001822;28;20414;-60
2023/06/03 02:23:18;;;;;;;26.08;11.40;;;;;;;;;;4995784;28;20050;-59
2023/06/03 02:25:45;;;;;;;23.10;10.25;;;;;;;;;;5018333;28;20041;-59
2023/06/03 02:28:12;;;;;;;24.63;11.07;;;;;;;;;;5017693;28;20046;-60
2023/06/03 02:30:38;;;;;;;26.45;10.70;;;;;;;;;;5019685;28;20525;-59
2023/06/03 02:33:05;;;;;;;23.90;10.57;;;;;;;;;;5020959;28;20487;-58
2023/06/03 02:35:31;;;;;;;24.73;11.02;;;;;;;;;;5018622;28;20407;-59
2023/06/03 02:37:57;;;;;;;24.55;10.38;;;;;;;;;;4996212;28;20125;-59
2023/06/03 02:40:23;;;;;;;22.38;10.80;;;;;;;;;;5009332;28;20049;-60
2023/06/03 02:42:49;;;;;;;28.98;11.07;;;;;;;;;;5002590;28;20413;-58
2023/06/03 02:45:15;;;;;;;27.98;11.23;;;;;;;;;;5014568;28;20044;-59
2023/06/03 02:47:42;;;;;;;24.80;11.38;;;;;;;;;;5002207;28;20040;-58
2023/06/03 02:50:08;;;;;;;24.08;11.23;;;;;;;;;;5000417;28;20396;-59
2023/06/03 02:52:35;;;;;;;25.73;11.60;;;;;;;;;;5011316;28;20044;-59
2023/06/03 02:55:03;;;;;;;24.50;10.88;;;;;;;;;;5006774;28;20069;-59
2023/06/03 02:57:29;;;;;;;24.70;10.98;;;;;;;;;;5003944;28;20038;-59
2023/06/03 02:59:56;;;;;;;26.98;11.65;;;;;;;;;;5000066;28;20037;-59
2023/06/03 03:02:24;;;;;;;25.30;11.15;;;;;;;;;;5006270;28;20507;-60
2023/06/03 03:04:50;;;;;;;24.88;10.45;;;;;;;;;;5007852;28;20038;-60
2023/06/03 03:07:17;;;;;;;34.95;11.88;;;;;;;;;;4998957;28;20384;-58
2023/06/03 03:09:43;;;;;;;24.58;11.60;;;;;;;;;;5016828;28;20659;-59
2023/06/03 03:12:10;;;;;;;23.85;11.25;;;;;;;;;;4996306;28;20049;-60
2023/06/03 03:14:40;;;;;;;28.00;11.38;;;;;;;;;;4995528;28;20038;-58
2023/06/03 03:17:07;;;;;;;29.00;12.05;;;;;;;;;;5008759;28;20517;-58
2023/06/03 03:19:33;;;;;;;24.63;11.32;;;;;;;;;;5005048;28;20049;-59
2023/06/03 03:21:59;;;;;;;29.70;12.07;;;;;;;;;;5007304;28;20056;-59
2023/06/03 03:24:30;;;;;;;23.37;12.07;;;;;;;;;;5004532;28;20096;-59
2023/06/03 03:26:56;;;;;;;28.10;10.77;;;;;;;;;;5002942;28;20061;-58
2023/06/03 03:29:25;;;;;;;28.33;10.85;;;;;;;;;;4999937;28;20034;-59
2023/06/03 03:32:02;;;;;;;26.13;11.60;;;;;;;;;;4999830;28;20041;-58
2023/06/03 03:34:30;;;;;;;29.52;11.02;;;;;;;;;;5005774;28;20049;-59
2023/06/03 03:36:56;;;;;;;28.65;11.60;;;;;;;;;;5004541;28;20041;-58
2023/06/03 03:39:23;;;;;;;25.05;10.23;;;;;;;;;;4998578;28;20038;-59
2023/06/03 03:41:52;;;;;;;27.95;11.10;;;;;;;;;;5010714;28;20483;-59
2023/06/03 03:44:19;;;;;;;25.90;11.63;;;;;;;;;;4983092;28;20076;-59
2023/06/03 03:46:58;;;;;;;25.30;11.00;;;;;;;;;;5008924;28;20041;-59
2023/06/03 03:49:31;;;;;;;25.52;10.90;;;;;;;;;;5019159;28;20125;-59
2023/06/03 03:52:05;;;;;;;28.83;11.07;;;;;;;;;;5005386;28;20388;-59
2023/06/03 03:54:35;;;;;;;25.98;11.25;;;;;;;;;;5011196;28;20049;-58
2023/06/03 03:57:08;;;;;;;25.52;11.18;;;;;;;;;;5011256;28;20049;-58
2023/06/03 03:59:35;;;;;;;27.20;11.93;;;;;;;;;;4999112;28;20052;-58
2023/06/03 04:02:02;;;;;;;24.83;11.25;;;;;;;;;;5000877;28;20052;-58
2023/06/03 04:04:43;;;;;;;23.90;10.77;;;;;;;;;;4995404;28;20057;-58
2023/06/03 04:07:16;;;;;;;22.85;11.15;;;;;;;;;;4999954;28;20431;-59
2023/06/03 04:09:43;;;;;;;34.10;11.68;;;;;;;;;;5020941;28;20068;-59
2023/06/03 04:12:33;;;;;;;27.95;11.73;;;;;;;;;;5008392;28;20045;-59
2023/06/03 04:15:03;;;;;;;27.17;11.50;;;;;;;;;;4997059;28;20053;-60
2023/06/03 04:17:35;;;;;;;32.75;11.48;;;;;;;;;;4993200;28;20029;-59
2023/06/03 04:20:05;;;;;;;26.05;10.65;;;;;;;;;;4994214;28;20415;-59
2023/06/03 04:22:32;;;;;;;21.83;10.68;;;;;;;;;;4994092;28;20025;-60
2023/06/03 04:25:00;;;;;;;30.58;12.18;;;;;;;;;;5012048;28;20060;-59
2023/06/03 04:27:56;;;;;;;24.13;10.80;;;;;;;;;;5019874;28;20056;-59
2023/06/03 04:30:22;;;;;;;28.52;12.23;;;;;;;;;;5002280;28;20041;-58
2023/06/03 04:32:49;;;;;;;27.42;12.00;;;;;;;;;;5014745;28;20049;-59
2023/06/03 04:35:16;;;;;;;34.40;11.55;;;;;;;;;;5007603;28;20411;-58
2023/06/03 04:37:44;;;;;;;28.77;11.75;;;;;;;;;;4997863;28;20034;-58
2023/06/03 04:40:15;;;;;;;26.75;11.40;;;;;;;;;;5008624;28;20042;-58
2023/06/03 04:42:42;;;;;;;30.10;11.75;;;;;;;;;;5015106;28;20197;-58
2023/06/03 04:45:09;;;;;;;26.83;11.73;;;;;;;;;;4995296;28;20038;-60
2023/06/03 04:47:41;;;;;;;26.65;11.55;;;;;;;;;;4998684;28;20045;-58
2023/06/03 04:50:09;;;;;;;33.53;12.88;;;;;;;;;;4995142;28;20049;-60
2023/06/03 04:52:36;;;;;;;32.33;12.25;;;;;;;;;;5003160;28;20046;-59
2023/06/03 04:55:04;;;;;;;36.08;12.88;;;;;;;;;;5002551;28;20050;-59
2023/06/03 04:57:32;;;;;;;26.15;12.43;;;;;;;;;;5020599;28;20086;-59
2023/06/03 04:59:59;;;;;;;29.35;11.05;;;;;;;;;;5004562;28;20419;-61
2023/06/03 05:02:31;;;;;;;32.30;13.50;;;;;;;;;;4989145;28;20034;-59
2023/06/03 05:05:00;;;;;;;35.80;12.77;;;;;;;;;;5009505;28;20045;-58
2023/06/03 05:07:26;;;;;;;32.30;11.45;;;;;;;;;;5015730;28;20044;-57
2023/06/03 05:09:53;;;;;;;29.20;12.90;;;;;;;;;;5013692;28;20400;-57
2023/06/03 05:12:20;;;;;;;35.70;13.38;;;;;;;;;;5012579;28;20049;-57
2023/06/03 05:14:46;;;;;;;30.73;13.52;;;;;;;;;;5001361;28;20049;-58
2023/06/03 05:17:13;;;;;;;39.63;15.38;;;;;;;;;;4996531;28;20034;-58
2023/06/03 05:19:39;;;;;;;32.25;12.32;;;;;;;;;;4997310;28;20044;-58
2023/06/03 05:22:05;;;;;;;36.88;13.55;;;;;;;;;;4999339;28;20056;-58
2023/06/03 05:24:35;;;;;;;33.25;14.05;;;;;;;;;;4998650;28;20037;-57
2023/06/03 05:27:03;;;;;;;34.38;14.35;;;;;;;;;;5001546;28;20042;-57
2023/06/03 05:29:29;;;;;;;34.40;13.88;;;;;;;;;;5001377;28;20057;-58
2023/06/03 05:31:57;;;;;;;36.90;14.85;;;;;;;;;;5003396;28;20518;-58
2023/06/03 05:34:23;;;;;;;49.45;14.85;;;;;;;;;;5005400;28;20042;-57
2023/06/03 05:36:49;;;;;;;36.83;13.75;;;;;;;;;;5012101;28;20033;-57
2023/06/03 05:39:15;;;;;;;44.97;14.70;;;;;;;;;;5000731;28;20566;-58
2023/06/03 05:41:42;;;;;;;35.80;12.93;;;;;;;;;;5006347;28;20503;-58
2023/06/03 05:44:10;;;;;;;35.80;13.18;;;;;;;;;;5003532;28;20049;-58
2023/06/03 05:46:36;;;;;;;32.45;13.18;;;;;;;;;;5025674;28;20388;-58
2023/06/03 05:49:03;;;;;;;35.92;12.43;;;;;;;;;;4980992;28;20061;-57
2023/06/03 05:51:29;;;;;;;28.45;12.95;;;;;;;;;;4999159;28;20037;-57
2023/06/03 05:53:55;;;;;;;35.60;13.05;;;;;;;;;;5001300;28;20077;-58
2023/06/03 05:56:24;;;;;;;26.93;12.67;;;;;;;;;;5011180;28;20049;-59
2023/06/03 05:58:50;;;;;;;29.27;11.93;;;;;;;;;;5018351;28;20304;-59
2023/06/03 06:01:16;;;;;;;29.00;12.77;;;;;;;;;;5010117;28;20042;-58
2023/06/03 06:03:44;;;;;;;28.35;11.88;;;;;;;;;;5008076;28;20049;-57
2023/06/03 06:06:11;;;;;;;21.77;10.25;;;;;;;;;;4998855;28;20404;-58
2023/06/03 06:08:38;;;;;;;23.85;10.07;;;;;;;;;;5014143;28;20046;-56
2023/06/03 06:11:04;;;;;;;21.98;9.20;;;;;;;;;;4999624;28;20045;-57
2023/06/03 06:13:30;;;;;;;19.55;9.05;;;;;;;;;;5006603;28;20037;-57
2023/06/03 06:16:01;;;;;;;25.42;9.13;;;;;;;;;;4990375;28;20514;-58
2023/06/03 06:18:29;;;;;;;22.60;9.57;;;;;;;;;;5007507;28;20415;-59
2023/06/03 06:20:56;;;;;;;19.52;8.85;;;;;;;;;;5001645;28;20053;-58
2023/06/03 06:23:23;;;;;;;18.73;8.95;;;;;;;;;;4995801;28;20448;-58
2023/06/03 06:25:52;;;;;;;15.73;8.68;;;;;;;;;;4999343;28;20053;-57
2023/06/03 06:28:22;;;;;;;14.70;8.50;;;;;;;;;;5011400;28;20041;-57
2023/06/03 06:30:53;;;;;;;19.98;9.23;;;;;;;;;;5008867;28;20052;-58
2023/06/03 06:33:20;;;;;;;12.32;7.63;;;;;;;;;;5000301;28;20042;-59
2023/06/03 06:35:46;;;;;;;13.50;7.45;;;;;;;;;;4999805;28;20537;-57
2023/06/03 06:38:13;;;;;;;13.93;8.07;;;;;;;;;;5012899;28;20041;-58
2023/06/03 06:40:40;;;;;;;15.90;7.60;;;;;;;;;;4998461;28;20387;-57
2023/06/03 06:43:13;;;;;;;15.75;7.82;;;;;;;;;;5008726;28;20056;-57
2023/06/03 06:45:50;;;;;;;17.77;7.07;;;;;;;;;;5000581;28;20050;-57
2023/06/03 06:48:16;;;;;;;17.17;8.55;;;;;;;;;;5001706;28;20040;-57
2023/06/03 06:50:55;;;;;;;21.40;9.70;;;;;;;;;;4996874;28;20046;-57
2023/06/03 06:53:47;;;;;;;14.25;7.13;;;;;;;;;;5022244;28;20507;-57
2023/06/03 06:56:15;;;;;;;14.05;6.97;;;;;;;;;;5000300;28;20419;-57
2023/06/03 06:58:54;;;;;;;;;;;;;;;;;;5006238;28;20041;-56
2023/06/03 07:01:21;;;;;;;9.93;4.90;;;;;;;;;;5006342;28;19920;-58
2023/06/03 07:03:50;;;;;;;;;;;;;;;;;;5013913;28;20049;-57
2023/06/03 07:06:16;;;;;;;17.60;5.55;;;;;;;;;;5010016;28;20302;-57
2023/06/03 07:08:44;;;;;;;13.48;6.30;;;;;;;;;;4994973;28;20064;-58
2023/06/03 07:11:11;;;;;;;10.57;5.68;;;;;;;;;;5006122;28;20044;-57
2023/06/03 07:13:45;;;;;;;9.48;6.07;;;;;;;;;;5011492;28;20037;-57
2023/06/03 07:16:14;;;;;;;10.60;5.95;;;;;;;;;;5011017;28;20038;-56
2023/06/03 07:18:41;;;;;;;16.80;6.60;;;;;;;;;;5006762;28;20045;-57
2023/06/03 07:21:07;;;;;;;11.45;5.80;;;;;;;;;;5010880;28;20044;-57
2023/06/03 07:23:34;;;;;;;13.57;7.22;;;;;;;;;;5010450;28;20053;-57
2023/06/03 07:26:02;;;;;;;15.18;6.35;;;;;;;;;;5000182;28;20037;-58
2023/06/03 07:28:35;;;;;;;10.77;6.20;;;;;;;;;;5004949;28;20049;-57
2023/06/03 07:31:10;;;;;;;11.93;6.30;;;;;;;;;;4997995;28;20042;-56
2023/06/03 07:33:44;;;;;;;;;;;;;;;;;;4994608;28;20052;-57
2023/06/03 07:36:12;;;;;;;11.15;5.65;;;;;;;;;;5017880;28;19920;-57
2023/06/03 07:38:38;;;;;;;13.40;6.00;;;;;;;;;;5021325;28;20491;-57
2023/06/03 07:41:09;;;;;;;9.43;6.13;;;;;;;;;;5010011;28;20507;-56
2023/06/03 07:43:41;;;;;;;11.23;6.78;;;;;;;;;;5009715;28;20068;-56
2023/06/03 07:46:09;;;;;;;14.15;5.60;;;;;;;;;;5015507;28;20049;-55
2023/06/03 07:48:39;;;;;;;9.75;5.65;;;;;;;;;;5021262;28;20388;-55
2023/06/03 07:51:06;;;;;;;10.05;6.25;;;;;;;;;;5001738;28;20037;-57
2023/06/03 07:53:36;;;;;;;12.52;6.25;;;;;;;;;;5017413;28;20041;-57
2023/06/03 07:56:05;;;;;;;;;;;;;;;;;;5023120;28;20029;-58
2023/06/03 07:58:35;;;;;;;11.02;6.82;;;;;;;;;;5018549;28;20294;-56
2023/06/03 08:01:01;;;;;;;;;;;;;;;;;;5018968;28;20069;-56
2023/06/03 08:03:28;;;;;;;13.18;6.55;;;;;;;;;;5015852;28;20409;-56
2023/06/03 08:05:54;;;;;;;14.35;6.88;;;;;;;;;;5023085;28;20044;-56
2023/06/03 08:08:25;;;;;;;11.63;6.55;;;;;;;;;;5014768;28;20038;-55
2023/06/03 08:10:51;;;;;;;12.18;6.32;;;;;;;;;;5018831;28;20406;-56
2023/06/03 08:13:18;;;;;;;13.25;6.57;;;;;;;;;;5016440;28;20037;-56
2023/06/03 08:15:44;;;;;;;12.88;6.85;;;;;;;;;;5004733;28;20058;-57
2023/06/03 08:18:12;;;;;;;9.88;6.40;;;;;;;;;;5019534;28;20487;-59
2023/06/03 08:20:38;;;;;;;8.50;6.18;;;;;;;;;;5002643;28;20056;-58
2023/06/03 08:23:05;;;;;;;20.02;7.95;;;;;;;;;;5014304;28;20523;-55
2023/06/03 08:25:31;;;;;;;16.10;6.65;;;;;;;;;;5016236;28;20034;-56
2023/06/03 08:27:58;;;;;;;10.75;6.18;;;;;;;;;;5014592;28;20423;-58
2023/06/03 08:30:24;;;;;;;13.77;6.53;;;;;;;;;;4997177;28;20061;-56
2023/06/03 08:32:51;;;;;;;13.05;6.97;;;;;;;;;;5006271;28;20388;-58
2023/06/03 08:35:21;;;;;;;12.80;6.65;;;;;;;;;;5021808;28;20040;-57
2023/06/03 08:37:47;;;;;;;12.60;6.80;;;;;;;;;;5015048;28;20435;-58
2023/06/03 08:40:16;;;;;;;13.70;6.90;;;;;;;;;;4998417;28;20045;-56
2023/06/03 08:42:43;;;;;;;11.88;6.75;;;;;;;;;;5013580;28;20522;-57
2023/06/03 08:45:11;;;;;;;10.10;6.05;;;;;;;;;;5011734;28;20037;-56
2023/06/03 08:47:44;;;;;;;13.27;6.65;;;;;;;;;;5011314;28;20041;-57
2023/06/03 08:50:11;;;;;;;12.15;6.43;;;;;;;;;;5013676;28;20041;-57
2023/06/03 08:52:39;;;;;;;14.48;6.78;;;;;;;;;;4998253;28;20042;-58
2023/06/03 08:55:06;;;;;;;13.23;6.93;;;;;;;;;;5021794;28;20060;-57
2023/06/03 08:57:36;;;;;;;13.82;7.15;;;;;;;;;;5013287;28;20046;-57
2023/06/03 09:00:05;;;;;;;11.00;6.57;;;;;;;;;;5016071;28;20429;-58
2023/06/03 09:02:32;;;;;;;8.80;6.22;;;;;;;;;;5023035;28;20419;-58
2023/06/03 09:05:01;;;;;;;16.75;6.97;;;;;;;;;;5020628;28;20483;-58
2023/06/03 09:07:29;;;;;;;11.70;6.97;;;;;;;;;;5016032;28;20057;-58
2023/06/03 09:09:57;;;;;;;13.35;6.88;;;;;;;;;;5015850;28;20037;-57
2023/06/03 09:12:26;;;;;;;10.55;6.85;;;;;;;;;;5012458;28;20033;-57
2023/06/03 09:14:54;;;;;;;14.15;7.18;;;;;;;;;;5018853;28;20483;-58
2023/06/03 09:17:23;;;;;;;11.38;7.03;;;;;;;;;;5004582;28;20045;-58
2023/06/03 09:19:49;;;;;;;15.35;7.20;;;;;;;;;;5012362;28;20037;-56
2023/06/03 09:22:17;;;;;;;11.35;6.82;;;;;;;;;;5019245;28;20057;-57
2023/06/03 09:24:43;;;;;;;13.68;7.18;;;;;;;;;;5015678;28;20101;-57
2023/06/03 09:27:09;;;;;;;13.70;7.20;;;;;;;;;;5015090;28;20042;-57
2023/06/03 09:29:36;;;;;;;12.60;6.70;;;;;;;;;;5013327;28;20046;-57
2023/06/03 09:32:03;;;;;;;10.63;6.53;;;;;;;;;;5010544;28;20419;-57
2023/06/03 09:34:29;;;;;;;11.23;7.03;;;;;;;;;;4998589;28;20496;-56
2023/06/03 09:36:56;;;;;;;13.05;6.93;;;;;;;;;;5024328;28;20045;-57
2023/06/03 09:39:32;;;;;;;13.32;6.70;;;;;;;;;;5013699;28;20034;-57
2023/06/03 09:41:58;;;;;;;13.18;7.53;;;;;;;;;;4983486;28;20499;-56
2023/06/03 09:44:37;;;;;;;10.35;6.50;;;;;;;;;;5021255;28;20042;-57
2023/06/03 09:47:04;;;;;;;11.05;7.75;;;;;;;;;;5016917;28;20507;-56
2023/06/03 09:49:30;;;;;;;15.05;7.47;;;;;;;;;;5018483;28;20388;-56
2023/06/03 09:51:56;;;;;;;14.45;7.70;;;;;;;;;;5014824;28;20049;-56
2023/06/03 09:54:23;;;;;;;13.43;7.30;;;;;;;;;;5017693;28;20381;-56
2023/06/03 09:56:51;;;;;;;10.35;7.40;;;;;;;;;;5026555;28;20061;-57
2023/06/03 09:59:21;;;;;;;13.32;7.05;;;;;;;;;;5027624;28;20034;-57
2023/06/03 10:01:49;;;;;;;11.27;7.68;;;;;;;;;;5017929;28;20435;-57
2023/06/03 10:04:22;;;;;;;14.02;7.10;;;;;;;;;;5013812;28;20430;-58
2023/06/03 10:07:06;;;;;;;10.20;7.05;;;;;;;;;;5017030;28;20064;-57
2023/06/03 10:09:32;;;;;;;11.50;7.30;;;;;;;;;;5018385;28;20408;-58
2023/06/03 10:11:58;;;;;;;13.05;7.30;;;;;;;;;;5027242;28;20037;-57
2023/06/03 10:14:27;;;;;;;11.40;7.43;;;;;;;;;;5023242;28;20045;-58
2023/06/03 10:17:09;;;;;;;12.77;7.60;;;;;;;;;;5011692;28;20533;-59
2023/06/03 10:19:38;;;;;;;13.15;8.07;;;;;;;;;;5012024;28;20041;-59
2023/06/03 10:22:06;;;;;;;16.42;7.50;;;;;;;;;;5020512;28;20045;-59
2023/06/03 10:24:42;;;;;;;18.00;7.90;;;;;;;;;;5002882;28;20034;-59
2023/06/03 10:27:09;;;;;;;12.18;7.22;;;;;;;;;;5004613;28;20133;-58
2023/06/03 10:29:36;;;;;;;9.60;6.93;;;;;;;;;;5020596;28;20499;-58
2023/06/03 10:32:05;;;;;;;10.07;7.10;;;;;;;;;;5021986;28;20399;-58
2023/06/03 10:34:35;;;;;;;14.02;8.35;;;;;;;;;;5019056;28;20053;-59
2023/06/03 10:37:05;;;;;;;12.50;7.88;;;;;;;;;;5021523;28;20042;-59
2023/06/03 10:39:31;;;;;;;;;;;;;;;;;;4999264;28;20048;-59
2023/06/03 10:41:59;;;;;;;11.93;7.30;;;;;;;;;;5020122;28;19920;-59
2023/06/03 10:44:26;;;;;;;15.30;8.10;;;;;;;;;;5021683;28;20038;-59
2023/06/03 10:46:59;;;;;;;11.85;7.90;;;;;;;;;;5004148;28;20375;-59
2023/06/03 10:49:30;;;;;;;13.43;7.93;;;;;;;;;;5023404;28;20507;-60
2023/06/03 10:52:06;;;;;;;11.35;7.47;;;;;;;;;;5021986;28;20038;-60
2023/06/03 10:54:40;;;;;;;14.50;7.53;;;;;;;;;;5024319;28;20046;-58
2023/06/03 10:57:11;;;;;;;14.00;7.65;;;;;;;;;;5019948;28;20403;-58
2023/06/03 10:59:45;;;;;;;15.05;7.50;;;;;;;;;;5026487;28;20049;-57
2023/06/03 11:02:12;;;;;;;15.15;7.93;;;;;;;;;;5020806;28;20038;-58
2023/06/03 11:04:39;;;;;;;13.45;7.75;;;;;;;;;;5025847;28;20045;-57
2023/06/03 11:07:33;;;;;;;13.32;7.60;;;;;;;;;;5021895;28;20033;-58
2023/06/03 11:09:59;;;;;;;18.45;8.25;;;;;;;;;;5007883;28;21079;-58
2023/06/03 11:12:55;;;;;;;17.38;8.30;;;;;;;;;;5028188;28;20037;-58
2023/06/03 11:15:21;;;;;;;38.67;19.90;;;;;;;;;;5001491;28;20046;-58
2023/06/03 11:18:16;;;;;;;81.88;36.47;;;;;;;;;;5022908;28;20071;-59
2023/06/03 11:20:42;;;;;;;56.38;29.30;;;;;;;;;;4995422;28;20045;-59
2023/06/03 11:23:08;;;;;;;26.48;17.63;;;;;;;;;;5025666;28;20044;-58
2023/06/03 11:25:36;;;;;;;23.88;14.40;;;;;;;;;;5009614;28;20040;-60
2023/06/03 11:28:28;;;;;;;13.35;8.43;;;;;;;;;;5014908;28;20025;-59
2023/06/03 11:30:55;;;;;;;13.95;8.20;;;;;;;;;;5017059;28;20034;-60
2023/06/03 11:33:21;;;;;;;12.52;8.25;;;;;;;;;;5020719;28;20049;-57
2023/06/03 11:35:47;;;;;;;14.10;7.75;;;;;;;;;;5026330;28;20041;-59
2023/06/03 11:38:14;;;;;;;14.27;8.18;;;;;;;;;;5027328;28;20040;-56
2023/06/03 11:40:44;;;;;;;10.27;7.78;;;;;;;;;;5020286;28;20041;-60
2023/06/03 11:43:11;;;;;;;13.00;7.90;;;;;;;;;;5027922;28;20034;-59
2023/06/03 11:45:37;;;;;;;17.48;8.40;;;;;;;;;;5026001;28;20044;-59
2023/06/03 11:48:08;;;;;;;10.52;7.80;;;;;;;;;;5026678;28;20034;-59
2023/06/03 11:50:46;;;;;;;11.52;7.88;;;;;;;;;;5002460;28;20033;-56
2023/06/03 11:53:35;;;;;;;10.68;7.40;;;;;;;;;;5024134;28;20038;-59
2023/06/03 11:56:09;;;;;;;12.50;7.97;;;;;;;;;;5011985;28;20484;-60
2023/06/03 11:58:38;;;;;;;15.70;7.93;;;;;;;;;;5008332;28;20037;-59
2023/06/03 12:01:16;;;;;;;14.70;8.20;;;;;;;;;;5019384;28;20040;-60
2023/06/03 12:04:03;;;;;;;12.05;7.85;;;;;;;;;;5019716;28;20038;-59
2023/06/03 12:06:33;;;;;;;15.32;7.85;;;;;;;;;;5024218;28;20041;-58
2023/06/03 12:08:59;;;;;;;13.88;7.70;;;;;;;;;;5021033;28;20061;-59
2023/06/03 12:11:32;;;;;;;14.43;8.07;;;;;;;;;;5020916;28;20037;-59
2023/06/03 12:13:59;;;;;;;13.93;8.45;;;;;;;;;;5020244;28;20030;-60
2023/06/03 12:16:30;;;;;;;14.27;7.65;;;;;;;;;;5017129;28;20037;-60
2023/06/03 12:18:58;;;;;;;11.82;8.05;;;;;;;;;;5020174;28;20037;-61
2023/06/03 12:21:24;;;;;;;12.25;7.95;;;;;;;;;;5015448;28;20057;-60
2023/06/03 12:23:50;;;;;;;21.40;7.85;;;;;;;;;;5015767;28;20131;-60
2023/06/03 12:26:17;;;;;;;13.57;8.63;;;;;;;;;;5018926;28;20045;-60
2023/06/03 12:28:43;;;;;;;16.05;9.23;;;;;;;;;;5020940;28;20416;-57
2023/06/03 12:31:14;;;;;;;12.80;9.15;;;;;;;;;;5019275;28;20435;-60
2023/06/03 12:33:41;;;;;;;24.42;18.70;;;;;;;;;;5018508;28;20395;-61
2023/06/03 12:36:09;;;;;;;326.88;240.27;;;;;;;;;;5024832;28;20041;-61
2023/06/03 12:38:57;;;;;;;127.55;90.20;;;;;;;;;;5018639;28;20038;-60
2023/06/03 12:41:23;;;;;;;;;;;;;;;;;;5020221;28;20038;-61
2023/06/03 12:43:59;;;;;;;16.60;10.82;;;;;;;;;;5025055;28;19944;-60
2023/06/03 12:46:25;;;;;;;10.82;8.60;;;;;;;;;;5023829;28;20056;-61
2023/06/03 12:48:56;;;;;;;14.57;8.02;;;;;;;;;;5025517;28;20038;-61
2023/06/03 12:51:29;;;;;;;10.43;7.78;;;;;;;;;;5000990;28;20063;-61
2023/06/03 12:53:56;;;;;;;13.20;7.97;;;;;;;;;;5000357;28;20053;-61
2023/06/03 12:56:26;;;;;;;15.68;8.38;;;;;;;;;;5020057;28;20045;-61
2023/06/03 12:58:55;;;;;;;12.48;7.78;;;;;;;;;;5020624;28;20045;-62
2023/06/03 13:01:22;;;;;;;12.65;7.88;;;;;;;;;;4987901;28;20098;-61
2023/06/03 13:03:54;;;;;;;13.65;7.68;;;;;;;;;;5017028;28;20049;-59
2023/06/03 13:06:22;;;;;;;11.77;7.88;;;;;;;;;;5019706;28;20036;-60
2023/06/03 13:08:51;;;;;;;12.40;8.30;;;;;;;;;;5018430;28;20377;-62
2023/06/03 13:11:18;;;;;;;16.95;8.55;;;;;;;;;;5019742;28;20038;-61
2023/06/03 13:13:44;;;;;;;15.35;8.45;;;;;;;;;;5019367;28;20419;-61
2023/06/03 13:16:10;;;;;;;10.52;7.68;;;;;;;;;;5019379;28;20052;-60
2023/06/03 13:18:36;;;;;;;13.80;8.15;;;;;;;;;;5000250;28;20515;-61
2023/06/03 13:21:03;;;;;;;13.02;8.73;;;;;;;;;;5018916;28;20045;-61
2023/06/03 13:23:30;;;;;;;13.90;8.75;;;;;;;;;;5032700;28;20056;-62
2023/06/03 13:25:57;;;;;;;10.25;7.93;;;;;;;;;;5019511;28;20037;-61
2023/06/03 13:28:23;;;;;;;11.73;7.80;;;;;;;;;;5001228;28;20037;-59
2023/06/03 13:30:49;;;;;;;12.13;8.07;;;;;;;;;;5016813;28;20064;-61
2023/06/03 13:33:16;;;;;;;14.45;8.60;;;;;;;;;;5012713;28;20053;-61
2023/06/03 13:35:44;;;;;;;11.95;8.15;;;;;;;;;;5015334;28;20052;-60
2023/06/03 13:38:11;;;;;;;15.52;8.77;;;;;;;;;;5017340;28;20451;-61
2023/06/03 13:40:38;;;;;;;11.95;8.35;;;;;;;;;;5023617;28;20046;-62
2023/06/03 13:43:04;;;;;;;16.42;9.15;;;;;;;;;;5022604;28;20044;-60
2023/06/03 13:45:31;;;;;;;15.52;9.13;;;;;;;;;;5029468;28;20033;-64
2023/06/03 13:47:57;;;;;;;16.77;8.57;;;;;;;;;;5007797;28;20053;-63
2023/06/03 13:50:23;;;;;;;13.35;8.63;;;;;;;;;;5017430;28;20423;-63
2023/06/03 13:52:50;;;;;;;12.40;8.70;;;;;;;;;;5016237;28;20056;-62
2023/06/03 13:55:16;;;;;;;16.80;8.75;;;;;;;;;;5019045;28;20054;-62
2023/06/03 13:57:42;;;;;;;13.23;8.25;;;;;;;;;;5018087;28;20061;-62
2023/06/03 14:00:08;;;;;;;15.32;8.13;;;;;;;;;;5026829;28;20057;-64
2023/06/03 14:02:35;;;;;;;11.45;8.10;;;;;;;;;;5021765;28;20720;-63
2023/06/03 14:05:01;;;;;;;17.65;8.48;;;;;;;;;;5018317;28;20030;-62
2023/06/03 14:07:28;;;;;;;13.27;7.90;;;;;;;;;;5028264;28;20038;-61
2023/06/03 14:09:54;;;;;;;13.15;8.38;;;;;;;;;;5023132;28;20407;-60
2023/06/03 14:12:21;;;;;;;11.38;7.90;;;;;;;;;;5017028;28;20061;-61
2023/06/03 14:14:47;;;;;;;15.05;7.95;;;;;;;;;;5013382;28;20073;-61
2023/06/03 14:17:13;;;;;;;11.15;8.35;;;;;;;;;;4995570;28;20042;-60
2023/06/03 14:19:39;;;;;;;13.73;7.85;;;;;;;;;;4996385;28;20419;-60
2023/06/03 14:22:05;;;;;;;12.95;8.45;;;;;;;;;;5013906;28;20523;-63
2023/06/03 14:24:31;;;;;;;16.08;7.88;;;;;;;;;;5018922;28;20060;-60
2023/06/03 14:26:58;;;;;;;14.32;8.38;;;;;;;;;;5018261;28;20041;-60
2023/06/03 14:29:24;;;;;;;12.38;8.57;;;;;;;;;;5014371;28;20049;-61
2023/06/03 14:31:50;;;;;;;16.92;8.60;;;;;;;;;;5018561;28;20407;-63
2023/06/03 14:34:16;;;;;;;12.52;7.95;;;;;;;;;;5022574;28;20046;-61
2023/06/03 14:36:42;;;;;;;12.40;8.07;;;;;;;;;;5026222;28;20118;-62
2023/06/03 14:39:08;;;;;;;16.88;8.15;;;;;;;;;;5015152;28;20038;-59